INFORMAÇÕES METEOROLÓGICAS
METAR FOR PAAK
ADDS - METARS form results

(1021 UTC 21 April 2019)
Data provider http://aviationweather.gov/metar/data/
 
METAR text: PAAK 210956Z AUTO 28011KT 10SM SCT021 BKN029 OVC034 03/M01 A3004 RMK AO2 SLP173 T00281011
Conditions at: PAAK (ATKA , AK, US) observed 0956 UTC 21 April 2019
Temperature: 2.8°C (37°F)
Dewpoint: -1.1°C (30°F) [RH = 75%]
Pressure (altimeter): 30.04 inches Hg (1017.4 mb)
[Sea-level pressure: 1017.3 mb]
Winds: from the W (280 degrees) at 13 MPH (11 knots; 5.7 m/s)
Visibility: 10 or more miles (16+ km)
Ceiling: 2900 feet AGL
Clouds: scattered clouds at 2100 feet AGL
broken clouds at 2900 feet AGL
overcast cloud deck at 3400 feet AGL
Weather: automated observation with no human augmentation;
there may or may not be significant weather present at this time

 MAPA DO AEROPORTO

 INFORMAÇÕES DA PISTA
Pista 16 Tamanho da pista 4500 ft Largura da pista 100 ft
Elevação da pista 56 ft Ranhura da pista 0 ft Proa da pista 165
Pista 34 Tamanho da pista 4500 ft Largura da pista 100 ft
Elevação da pista 46 ft Ranhura da pista 0 ft Proa da pista 345

 FREQUÊNCIAS DO AEROPORTO

 AUXÍLIOS DE NAVEGAÇÃO PRÓXIMOS AO AEROPORTO



Powered by Mercosul Lnhas Aereas